Aidadiva — ICDH — position and weather

sailwx.info

Track history (hours):
 
Tides and Currents Weather Stations Pressure Air Temp Water Temp Dewpoint Dewpoint Depression Visibility Wind Speed Wind Dir Waves Ship Positions

Aidadiva

Last reported at 2018-Jun-18 02:52 UTC. Time now 2018-Jun-18 13:32 UTC.
Position N 55°36' E 015°15'.

Length 251 m; draft 7.2 m.

Type: Ship. MMSI: 247187700.

Date/timePositionNaut miles runAvg speedWind from/ knotsBaromVisibWave heightAir tempDewpointWater temp
2018-Jun-18 02:52N 55°36' E 015°15'716.6
2018-Jun-18 02:26N 55°32' E 015°04'916.8
2018-Jun-18 01:56N 55°28' E 014°51'916.6
2018-Jun-18 01:22N 55°23' E 014°37'816.6
2018-Jun-18 00:54N 55°17' E 014°29'716.6
2018-Jun-18 00:30N 55°12' E 014°21'816.5
2018-Jun-18 00:00N 55°05' E 014°12'816.3
2018-Jun-17 23:29N 55°01' E 014°00'1316.7
2018-Jun-17 22:42N 54°55' E 013°39'716.2
2018-Jun-17 22:15N 54°53' E 013°27'416.2
2018-Jun-17 21:59N 54°52' E 013°20'3915.8
2018-Jun-17 19:30N 54°35' E 012°18'815.7
2018-Jun-17 19:00N 54°28' E 012°14'815.4
2018-Jun-17 18:30N 54°21' E 012°07'1011.5
2018-Jun-17 17:38N 54°11' E 012°05'0 0.4
2018-Jun-17 16:19N 54°11' E 012°06'0 0.0
2018-Jun-17 15:04N 54°11' E 012°06'0 0.0
2018-Jun-17 14:58N 54°11' E 012°06'0 0.0
2018-Jun-17 14:30N 54°11' E 012°06'0 0.0
2018-Jun-17 13:57N 54°11' E 012°06'0 0.0
2018-Jun-17 13:30N 54°11' E 012°06'0 0.0
2018-Jun-17 12:17N 54°11' E 012°06'0 0.0
2018-Jun-17 11:08N 54°11' E 012°06'0 0.0
2018-Jun-17 10:59N 54°11' E 012°06'0 0.0
2018-Jun-17 09:13N 54°11' E 012°06'0 0.0
2018-Jun-17 08:55N 54°11' E 012°06'0 0.0
2018-Jun-17 08:01N 54°11' E 012°06'0 0.0
2018-Jun-17 07:12N 54°11' E 012°06'0 0.0
2018-Jun-17 07:00N 54°11' E 012°06'0 0.1
2018-Jun-17 04:44N 54°10' E 012°06'2 7.1
2018-Jun-17 04:30N 54°12' E 012°05'3 6.4
2018-Jun-17 04:00N 54°15' E 012°02'510.6
2018-Jun-17 03:30N 54°19' E 011°58'611.9
2018-Jun-17 02:59N 54°26' E 011°59'713.8
2018-Jun-17 02:30N 54°27' E 012°10'714.7
2018-Jun-17 02:00N 54°34' E 012°13'714.3
2018-Jun-17 01:30N 54°40' E 012°20'714.2
2018-Jun-17 01:00N 54°46' E 012°28'714.4
2018-Jun-17 00:30N 54°52' E 012°35'1013.6
2018-Jun-16 23:48N 55°00' E 012°43'514.3
2018-Jun-16 23:29N 55°05' E 012°41'5 9.2
2018-Jun-16 22:58N 55°09' E 012°39'4 8.0
2018-Jun-16 22:30N 55°13' E 012°38'4 7.4
2018-Jun-16 22:00N 55°16' E 012°37'4 7.2
2018-Jun-16 21:30N 55°20' E 012°37'4 7.3
2018-Jun-16 21:00N 55°24' E 012°38'4 7.3
2018-Jun-16 20:29N 55°27' E 012°40'3 7.2
2018-Jun-16 20:00N 55°31' E 012°42'4 8.7
2018-Jun-16 19:30N 55°35' E 012°42'4 8.6
2018-Jun-16 19:00N 55°39' E 012°41'4 8.6
2018-Jun-16 18:30N 55°43' E 012°39'2 4.3
2018-Jun-16 18:00N 55°42' E 012°36'0 0.1
2018-Jun-16 17:28N 55°42' E 012°36'0 0.0
2018-Jun-16 17:00N 55°42' E 012°36'0 0.0
2018-Jun-16 16:30N 55°42' E 012°36'0 0.0
2018-Jun-16 16:00N 55°42' E 012°36'0 0.0
2018-Jun-16 15:30N 55°42' E 012°36'0 0.0
2018-Jun-16 15:00N 55°42' E 012°36'0 0.0
2018-Jun-16 14:29N 55°42' E 012°36'0 0.0
2018-Jun-16 13:59N 55°42' E 012°36'0 0.0
2018-Jun-16 13:29N 55°42' E 012°36'0 0.0
2018-Jun-16 12:59N 55°42' E 012°36'0 0.0
2018-Jun-16 12:28N 55°42' E 012°36'0 0.0
2018-Jun-16 11:58N 55°42' E 012°36'0 0.0
2018-Jun-16 11:28N 55°42' E 012°36'0 0.0
2018-Jun-16 10:58N 55°42' E 012°36'0 0.0
2018-Jun-16 10:28N 55°42' E 012°36'1 2.5
2018-Jun-16 10:00N 55°43' E 012°37'3 5.3
2018-Jun-16 09:31N 55°41' E 012°41'510.5
2018-Jun-16 09:00N 55°36' E 012°42'5 9.2
2018-Jun-16 08:31N 55°31' E 012°42'714.2
2018-Jun-16 08:01N 55°24' E 012°42'612.7
2018-Jun-16 07:31N 55°18' E 012°42'814.6
2018-Jun-16 06:59N 55°16' E 012°55'714.8
2018-Jun-16 06:30N 55°15' E 013°07'2015.5
2018-Jun-16 05:12N 55°14' E 013°42'315.7
2018-Jun-16 04:59N 55°14' E 013°48'815.8
2018-Jun-16 04:30N 55°13' E 014°02'815.7
2018-Jun-16 04:00N 55°14' E 014°15'915.9
2018-Jun-16 03:27N 55°20' E 014°25'715.2
2018-Jun-16 03:00N 55°25' E 014°34'715.2
2018-Jun-16 02:30N 55°25' E 014°48'815.6
2018-Jun-16 02:00N 55°24' E 015°01'814.9
2018-Jun-16 01:30N 55°22' E 015°14'815.8
2018-Jun-16 01:00N 55°21' E 015°27'816.6
2018-Jun-16 00:30N 55°20' E 015°42'1116.1
2018-Jun-15 23:49N 55°17' E 016°01'516.1
2018-Jun-15 23:29N 55°16' E 016°10'6215.8
2018-Jun-15 19:34N 55°03' E 017°56'216.0
2018-Jun-15 19:25N 55°03' E 017°60'715.7
2018-Jun-15 19:00N 55°01' E 018°11'815.9
2018-Jun-15 18:29N 54°60' E 018°25'815.5
2018-Jun-15 18:00N 54°56' E 018°36'815.8
2018-Jun-15 17:31N 54°51' E 018°47'815.8
2018-Jun-15 17:01N 54°46' E 018°58'714.8
2018-Jun-15 16:31N 54°39' E 018°57'815.0
2018-Jun-15 16:00N 54°32' E 018°50'612.1
2018-Jun-15 15:30N 54°32' E 018°39'4 6.8
2018-Jun-15 14:59N 54°32' E 018°33'0 0.0
2018-Jun-15 14:29N 54°32' E 018°33'0 0.0
2018-Jun-15 13:59N 54°32' E 018°33'0 0.0
2018-Jun-15 13:29N 54°32' E 018°33'0 0.0
2018-Jun-15 12:59N 54°32' E 018°33'0 0.0
2018-Jun-15 12:28N 54°32' E 018°33'0 0.0
2018-Jun-15 11:58N 54°32' E 018°33'0 0.0
2018-Jun-15 11:28N 54°32' E 018°33'0 0.0
2018-Jun-15 10:58N 54°32' E 018°33'0 0.0
2018-Jun-15 10:27N 54°32' E 018°33'0 0.0
2018-Jun-15 10:00N 54°32' E 018°33'0 0.0
2018-Jun-15 09:30N 54°32' E 018°33'0 0.0
2018-Jun-15 09:00N 54°32' E 018°33'0 0.0
2018-Jun-15 08:30N 54°32' E 018°33'0 0.0
2018-Jun-15 07:59N 54°32' E 018°33'0 0.0
2018-Jun-15 07:29N 54°32' E 018°33'0 0.0
2018-Jun-15 06:59N 54°32' E 018°33'0 0.0
2018-Jun-15 06:29N 54°32' E 018°33'0 0.0
2018-Jun-15 05:59N 54°32' E 018°33'0 0.3
2018-Jun-15 05:30N 54°32' E 018°33'3 6.6
2018-Jun-15 05:00N 54°32' E 018°39'611.4
2018-Jun-15 04:31N 54°33' E 018°49'815.6
2018-Jun-15 04:01N 54°39' E 018°56'714.9
2018-Jun-15 03:30N 54°46' E 019°00'714.8
2018-Jun-15 03:01N 54°54' E 019°02'814.9
2018-Jun-15 02:30N 55°01' E 019°03'714.7
2018-Jun-15 02:00N 55°09' E 019°04'714.8
2018-Jun-15 01:29N 55°16' E 019°06'18617.2
2018-Jun-14 14:39N 58°21' E 019°43'415.5
2018-Jun-14 14:24N 58°25' E 019°44'615.6
2018-Jun-14 14:00N 58°31' E 019°45'815.5
2018-Jun-14 13:29N 58°39' E 019°47'815.7
2018-Jun-14 12:59N 58°47' E 019°48'815.9
2018-Jun-14 12:30N 58°55' E 019°50'815.8
2018-Jun-14 12:00N 59°02' E 019°51'815.5
2018-Jun-14 11:30N 59°10' E 019°53'815.4
2018-Jun-14 11:00N 59°18' E 019°55'815.6
2018-Jun-14 10:30N 59°26' E 019°55'815.3
2018-Jun-14 10:00N 59°33' E 019°58'714.4
2018-Jun-14 09:30N 59°40' E 019°52'815.0
2018-Jun-14 09:00N 59°45' E 019°42'1114.5
2018-Jun-14 08:16N 59°46' E 019°21'312.3
2018-Jun-14 08:00N 59°45' E 019°15'816.0
2018-Jun-14 07:30N 59°41' E 019°01'611.0
2018-Jun-14 06:59N 59°38' E 018°52'612.1
2018-Jun-14 06:30N 59°35' E 018°42'510.5
2018-Jun-14 06:00N 59°32' E 018°33'4 8.5
2018-Jun-14 05:30N 59°28' E 018°30'4 7.8
2018-Jun-14 05:00N 59°26' E 018°23'5 9.8
2018-Jun-14 04:30N 59°21' E 018°26'5 9.7
2018-Jun-14 04:00N 59°22' E 018°17'510.7
2018-Jun-14 03:30N 59°19' E 018°08'1 1.6
2018-Jun-14 03:00N 59°19' E 018°06'0 0.0
2018-Jun-14 02:30N 59°19' E 018°06'0 0.0
2018-Jun-14 01:59N 59°19' E 018°06'0 0.0
2018-Jun-14 01:29N 59°19' E 018°06'0 0.0
2018-Jun-14 00:59N 59°19' E 018°06'0 0.0
2018-Jun-14 00:29N 59°19' E 018°06'0 0.0
2018-Jun-13 23:59N 59°19' E 018°06'0 0.0
2018-Jun-13 23:28N 59°19' E 018°06'0 0.0
2018-Jun-13 22:58N 59°19' E 018°06'0 0.0
2018-Jun-13 22:28N 59°19' E 018°06'0 0.0
2018-Jun-13 21:58N 59°19' E 018°06'0 0.0
2018-Jun-13 21:24N 59°19' E 018°06'0 0.0
2018-Jun-13 21:00N 59°19' E 018°06'0 0.0
2018-Jun-13 20:30N 59°19' E 018°06'0 0.0
2018-Jun-13 20:00N 59°19' E 018°06'0 0.0
2018-Jun-13 19:30N 59°19' E 018°06'0 0.0
2018-Jun-13 18:59N 59°19' E 018°06'0 0.0
2018-Jun-13 18:26N 59°19' E 018°06'0 0.0
2018-Jun-13 17:59N 59°19' E 018°06'0 0.0
2018-Jun-13 17:29N 59°19' E 018°06'0 0.0
2018-Jun-13 16:56N 59°19' E 018°06'0 0.0
2018-Jun-13 16:30N 59°19' E 018°06'0 0.0
2018-Jun-13 15:58N 59°19' E 018°06'0 0.0
2018-Jun-13 15:28N 59°19' E 018°06'0 0.0
2018-Jun-13 14:58N 59°19' E 018°06'0 0.0
2018-Jun-13 14:28N 59°19' E 018°06'0 0.0
2018-Jun-13 14:00N 59°19' E 018°06'0 0.0
2018-Jun-13 13:30N 59°19' E 018°06'0 0.0
2018-Jun-13 12:57N 59°19' E 018°06'0 0.0
2018-Jun-13 12:30N 59°19' E 018°06'0 0.0
2018-Jun-13 11:59N 59°19' E 018°06'0 0.0
2018-Jun-13 11:29N 59°19' E 018°06'0 0.0
2018-Jun-13 10:59N 59°19' E 018°06'0 0.0
2018-Jun-13 10:29N 59°19' E 018°06'0 0.0
2018-Jun-13 09:59N 59°19' E 018°06'0 0.0
2018-Jun-13 09:28N 59°19' E 018°06'0 0.0
2018-Jun-13 08:58N 59°19' E 018°06'0 0.3
2018-Jun-13 08:30N 59°19' E 018°07'2 4.4
2018-Jun-13 08:00N 59°20' E 018°11'611.4
2018-Jun-13 07:30N 59°23' E 018°20'3 6.5
2018-Jun-13 07:00N 59°23' E 018°27'4 8.1
2018-Jun-13 06:30N 59°27' E 018°26'710.3
2018-Jun-13 05:49N 59°33' E 018°35'310.2
2018-Jun-13 05:30N 59°35' E 018°40'612.0
2018-Jun-13 05:00N 59°38' E 018°50'5 9.9
2018-Jun-13 04:30N 59°41' E 018°58'815.1
2018-Jun-13 04:00N 59°44' E 019°12'814.1
2018-Jun-13 03:27N 59°47' E 019°26'614.0
2018-Jun-13 03:00N 59°49' E 019°37'813.6
2018-Jun-13 02:25N 59°45' E 019°51'614.6
2018-Jun-13 02:01N 59°41' E 019°59'713.9
2018-Jun-13 01:30N 59°37' E 020°11'1014.8
2018-Jun-13 00:51N 59°37' E 020°30'714.8
2018-Jun-13 00:24N 59°35' E 020°43'614.4
2018-Jun-12 23:59N 59°34' E 020°54'714.7
2018-Jun-12 23:30N 59°33' E 021°08'714.8
2018-Jun-12 23:00N 59°31' E 021°22'714.8
2018-Jun-12 22:30N 59°30' E 021°36'714.6
2018-Jun-12 22:00N 59°28' E 021°50'814.7
2018-Jun-12 21:30N 59°28' E 022°05'714.5
2018-Jun-12 20:59N 59°28' E 022°20'714.6
2018-Jun-12 20:30N 59°31' E 022°32'714.6
2018-Jun-12 20:00N 59°33' E 022°46'714.7
2018-Jun-12 19:30N 59°36' E 022°60'714.7
2018-Jun-12 19:00N 59°37' E 023°14'814.6
2018-Jun-12 18:28N 59°39' E 023°29'714.5
2018-Jun-12 17:59N 59°41' E 023°42'814.8
2018-Jun-12 17:25N 59°43' E 023°58'614.7
2018-Jun-12 17:01N 59°45' E 024°10'714.8
2018-Jun-12 16:31N 59°47' E 024°24'714.5
2018-Jun-12 16:00N 59°49' E 024°37'714.6
2018-Jun-12 15:30N 59°56' E 024°45'612.9
2018-Jun-12 15:00N 59°60' E 024°54'611.4
2018-Jun-12 14:30N 60°06' E 024°54'3 6.1
2018-Jun-12 13:58N 60°09' E 024°55'0 0.0
2018-Jun-12 13:27N 60°09' E 024°55'0 0.0
2018-Jun-12 13:00N 60°09' E 024°55'0 0.0
2018-Jun-12 12:30N 60°09' E 024°55'0 0.0
2018-Jun-12 12:00N 60°09' E 024°55'0 0.0
2018-Jun-12 11:30N 60°09' E 024°55'0 0.0
2018-Jun-12 10:59N 60°09' E 024°55'0 0.0
2018-Jun-12 10:29N 60°09' E 024°55'0 0.0
2018-Jun-12 09:59N 60°09' E 024°55'0 0.0
2018-Jun-12 09:29N 60°09' E 024°55'0 0.0
2018-Jun-12 08:59N 60°09' E 024°55'0 0.0
2018-Jun-12 08:28N 60°09' E 024°55'0 0.0
2018-Jun-12 07:58N 60°09' E 024°55'0 0.0
2018-Jun-12 07:28N 60°09' E 024°55'0 0.0
2018-Jun-12 06:56N 60°09' E 024°55'0 0.0
2018-Jun-12 06:30N 60°09' E 024°55'0 0.0
2018-Jun-12 05:58N 60°09' E 024°55'0 0.8
2018-Jun-12 05:30N 60°09' E 024°55'3 5.5
2018-Jun-12 05:00N 60°06' E 024°54'612.4
2018-Jun-12 04:31N 60°00' E 024°60'714.1
2018-Jun-12 04:00N 59°59' E 025°14'815.6
2018-Jun-12 03:30N 59°57' E 025°29'3315.7
2018-Jun-12 01:24N 60°01' E 026°34'615.3
2018-Jun-12 01:00N 60°01' E 026°46'915.0
2018-Jun-12 00:24N 60°00' E 027°05'615.3
2018-Jun-12 00:00N 60°03' E 027°15'815.4
2018-Jun-11 23:30N 60°07' E 027°28'815.5
2018-Jun-11 23:00N 60°11' E 027°42'714.7
2018-Jun-11 22:30N 60°11' E 027°56'815.3
2018-Jun-11 22:01N 60°09' E 028°11'815.2
2018-Jun-11 21:30N 60°05' E 028°24'715.0
2018-Jun-11 21:00N 60°03' E 028°39'816.0
2018-Jun-11 20:30N 60°03' E 028°55'814.8
2018-Jun-11 19:56N 60°02' E 029°12'1812.6
2018-Jun-11 18:32N 59°59' E 029°46'129.8
2018-Jun-11 18:30N 59°58' E 029°47'610.8
2018-Jun-11 17:59N 59°56' E 029°58'510.4
2018-Jun-11 17:30N 59°57' E 030°08'2 0.9
2018-Jun-11 15:14N 59°57' E 030°12'0 0.0
2018-Jun-11 12:22N 59°57' E 030°12'0 0.0
2018-Jun-11 10:25N 59°57' E 030°12'0 0.0
2018-Jun-11 07:18N 59°57' E 030°12'0 0.0
2018-Jun-11 05:54N 59°57' E 030°12'0 0.0
2018-Jun-11 05:30N 59°57' E 030°12'0 0.0
2018-Jun-11 04:38N 59°57' E 030°12'0 0.0
2018-Jun-11 04:29N 59°57' E 030°12'0 0.0
2018-Jun-11 03:44N 59°57' E 030°12'0 0.0
2018-Jun-11 03:16N 59°57' E 030°12'0 0.0
2018-Jun-11 02:49N 59°57' E 030°12'0 0.0
2018-Jun-11 02:28N 59°57' E 030°12'0 0.0
2018-Jun-10 22:48N 59°57' E 030°12'0 0.0
2018-Jun-10 22:23N 59°57' E 030°12'0 0.0
2018-Jun-10 21:56N 59°57' E 030°12'0 0.0
2018-Jun-10 20:51N 59°57' E 030°12'0 0.0
2018-Jun-10 19:08N 59°57' E 030°12'0 0.0
2018-Jun-10 18:48N 59°57' E 030°12'0 0.0
2018-Jun-10 18:28N 59°57' E 030°12'0 0.0
2018-Jun-10 17:06N 59°57' E 030°12'0 0.0
2018-Jun-10 16:54N 59°57' E 030°12'0 0.0
2018-Jun-10 16:22N 59°57' E 030°12'0 0.0
2018-Jun-10 14:34N 59°57' E 030°12'0 0.0
2018-Jun-10 14:24N 59°57' E 030°12'0 0.0
2018-Jun-10 09:53N 59°57' E 030°12'0 0.0
2018-Jun-10 09:30N 59°57' E 030°12'0 0.0
2018-Jun-10 06:55N 59°57' E 030°12'0 0.0
2018-Jun-10 06:24N 59°57' E 030°12'0 0.0
2018-Jun-10 05:48N 59°57' E 030°12'0 0.0
2018-Jun-10 05:30N 59°57' E 030°12'0 0.0
2018-Jun-10 04:42N 59°57' E 030°12'0 0.0
2018-Jun-10 04:24N 59°57' E 030°12'0 0.0
2018-Jun-10 03:51N 59°57' E 030°12'0 0.7
2018-Jun-10 03:28N 59°57' E 030°11'4 7.7
2018-Jun-10 03:01N 59°56' E 030°04'5 9.3
2018-Jun-10 02:29N 59°56' E 029°54'510.2
2018-Jun-10 02:00N 59°59' E 029°46'510.1
2018-Jun-10 01:30N 60°00' E 029°36'610.2
2018-Jun-10 00:53N 60°02' E 029°24'820.1
2018-Jun-10 00:29N 60°02' E 029°08'5 9.7
2018-Jun-10 00:00N 60°02' E 028°58'814.9
2018-Jun-09 23:29N 60°02' E 028°43'715.6
2018-Jun-09 23:00N 60°03' E 028°28'816.2
2018-Jun-09 22:30N 60°07' E 028°14'815.8
2018-Jun-09 22:00N 60°09' E 027°59'815.2
2018-Jun-09 21:30N 60°10' E 027°44'815.7
2018-Jun-09 21:00N 60°06' E 027°30'815.4
2018-Jun-09 20:30N 60°02' E 027°17'815.3
2018-Jun-09 20:00N 59°58' E 027°04'815.3
2018-Jun-09 19:30N 59°59' E 026°49'815.0
2018-Jun-09 19:00N 59°59' E 026°34'815.4
2018-Jun-09 18:31N 59°57' E 026°19'815.4
2018-Jun-09 18:00N 59°55' E 026°04'815.6
2018-Jun-09 17:30N 59°52' E 025°49'815.5
2018-Jun-09 17:00N 59°50' E 025°35'815.5
2018-Jun-09 16:30N 59°47' E 025°20'815.4
2018-Jun-09 16:00N 59°45' E 025°06'1514.8
2018-Jun-09 15:00N 59°37' E 024°41'713.5
2018-Jun-09 14:30N 59°30' E 024°45'3 6.8
2018-Jun-09 14:00N 59°27' E 024°46'0 0.0
2018-Jun-09 13:30N 59°27' E 024°46'0 0.0
2018-Jun-09 13:00N 59°27' E 024°46'0 0.0
2018-Jun-09 12:30N 59°27' E 024°46'0 0.0
2018-Jun-09 11:59N 59°27' E 024°46'0 0.0
2018-Jun-09 11:30N 59°27' E 024°46'0 0.0
2018-Jun-09 11:00N 59°27' E 024°46'0 0.0
2018-Jun-09 10:29N 59°27' E 024°46'0 0.0
2018-Jun-09 09:58N 59°27' E 024°46'0 0.0
2018-Jun-09 09:25N 59°27' E 024°46'0 0.0
2018-Jun-09 08:58N 59°27' E 024°46'0 0.0
2018-Jun-09 08:28N 59°27' E 024°46'0 0.0
2018-Jun-09 07:58N 59°27' E 024°46'0 0.0
2018-Jun-09 07:30N 59°27' E 024°46'0 0.0
2018-Jun-09 07:00N 59°27' E 024°46'0 0.0
2018-Jun-09 06:30N 59°27' E 024°46'0 0.0
2018-Jun-09 06:00N 59°27' E 024°46'0 0.1
2018-Jun-09 05:30N 59°27' E 024°46'2 4.6
2018-Jun-09 05:00N 59°29' E 024°45'612.0
2018-Jun-09 04:31N 59°30' E 024°33'713.7
2018-Jun-09 04:00N 59°30' E 024°19'714.8
2018-Jun-09 03:30N 59°30' E 024°05'1215.4
2018-Jun-09 02:43N 59°30' E 023°41'315.2
2018-Jun-09 02:30N 59°30' E 023°34'815.3
2018-Jun-09 02:00N 59°30' E 023°19'815.4
2018-Jun-09 01:30N 59°29' E 023°04'815.5
2018-Jun-09 01:00N 59°27' E 022°49'1215.3
2018-Jun-09 00:13N 59°22' E 022°28'915.4
2018-Jun-08 23:38N 59°16' E 022°14'215.4
2018-Jun-08 23:30N 59°15' E 022°11'815.4
2018-Jun-08 23:00N 59°11' E 021°59'815.6
2018-Jun-08 22:30N 59°06' E 021°46'1015.9
2018-Jun-08 21:53N 58°58' E 021°35'26114.2
2018-Jun-08 03:34N 55°49' E 016°00'616.1
2018-Jun-08 03:12N 55°47' E 015°51'316.5
2018-Jun-08 03:00N 55°45' E 015°46'  
Track history (hours):
 
Tides and Currents Weather Stations Pressure Air Temp Water Temp Dewpoint Dewpoint Depression Visibility Wind Speed Wind Dir Waves Ship Positions

Aidadiva

Last reported at 2018-Jun-18 02:52 UTC. Time now 2018-Jun-18 13:32 UTC.
Position N 55°36' E 015°15'.

Length 251 m; draft 7.2 m.

Type: Ship. MMSI: 247187700.

Date/timePositionNaut miles runAvg speedWind from/ knotsBaromVisibWave heightAir tempDewpointWater temp
2018-Jun-18 02:52N 55°36' E 015°15'716.6
2018-Jun-18 02:26N 55°32' E 015°04'916.8
2018-Jun-18 01:56N 55°28' E 014°51'916.6
2018-Jun-18 01:22N 55°23' E 014°37'816.6
2018-Jun-18 00:54N 55°17' E 014°29'716.6
2018-Jun-18 00:30N 55°12' E 014°21'816.5
2018-Jun-18 00:00N 55°05' E 014°12'816.3
2018-Jun-17 23:29N 55°01' E 014°00'1316.7
2018-Jun-17 22:42N 54°55' E 013°39'716.2
2018-Jun-17 22:15N 54°53' E 013°27'416.2
2018-Jun-17 21:59N 54°52' E 013°20'3915.8
2018-Jun-17 19:30N 54°35' E 012°18'815.7
2018-Jun-17 19:00N 54°28' E 012°14'815.4
2018-Jun-17 18:30N 54°21' E 012°07'1011.5
2018-Jun-17 17:38N 54°11' E 012°05'0 0.4
2018-Jun-17 16:19N 54°11' E 012°06'0 0.0
2018-Jun-17 15:04N 54°11' E 012°06'0 0.0
2018-Jun-17 14:58N 54°11' E 012°06'0 0.0
2018-Jun-17 14:30N 54°11' E 012°06'0 0.0
2018-Jun-17 13:57N 54°11' E 012°06'0 0.0
2018-Jun-17 13:30N 54°11' E 012°06'0 0.0
2018-Jun-17 12:17N 54°11' E 012°06'0 0.0
2018-Jun-17 11:08N 54°11' E 012°06'0 0.0
2018-Jun-17 10:59N 54°11' E 012°06'0 0.0
2018-Jun-17 09:13N 54°11' E 012°06'0 0.0
2018-Jun-17 08:55N 54°11' E 012°06'0 0.0
2018-Jun-17 08:01N 54°11' E 012°06'0 0.0
2018-Jun-17 07:12N 54°11' E 012°06'0 0.0
2018-Jun-17 07:00N 54°11' E 012°06'0 0.1
2018-Jun-17 04:44N 54°10' E 012°06'2 7.1
2018-Jun-17 04:30N 54°12' E 012°05'3 6.4
2018-Jun-17 04:00N 54°15' E 012°02'510.6
2018-Jun-17 03:30N 54°19' E 011°58'611.9
2018-Jun-17 02:59N 54°26' E 011°59'713.8
2018-Jun-17 02:30N 54°27' E 012°10'714.7
2018-Jun-17 02:00N 54°34' E 012°13'714.3
2018-Jun-17 01:30N 54°40' E 012°20'714.2
2018-Jun-17 01:00N 54°46' E 012°28'714.4
2018-Jun-17 00:30N 54°52' E 012°35'1013.6
2018-Jun-16 23:48N 55°00' E 012°43'514.3
2018-Jun-16 23:29N 55°05' E 012°41'5 9.2
2018-Jun-16 22:58N 55°09' E 012°39'4 8.0
2018-Jun-16 22:30N 55°13' E 012°38'4 7.4
2018-Jun-16 22:00N 55°16' E 012°37'4 7.2
2018-Jun-16 21:30N 55°20' E 012°37'4 7.3
2018-Jun-16 21:00N 55°24' E 012°38'4 7.3
2018-Jun-16 20:29N 55°27' E 012°40'3 7.2
2018-Jun-16 20:00N 55°31' E 012°42'4 8.7
2018-Jun-16 19:30N 55°35' E 012°42'4 8.6
2018-Jun-16 19:00N 55°39' E 012°41'4 8.6
2018-Jun-16 18:30N 55°43' E 012°39'2 4.3
2018-Jun-16 18:00N 55°42' E 012°36'0 0.1
2018-Jun-16 17:28N 55°42' E 012°36'0 0.0
2018-Jun-16 17:00N 55°42' E 012°36'0 0.0
2018-Jun-16 16:30N 55°42' E 012°36'0 0.0
2018-Jun-16 16:00N 55°42' E 012°36'0 0.0
2018-Jun-16 15:30N 55°42' E 012°36'0 0.0
2018-Jun-16 15:00N 55°42' E 012°36'0 0.0
2018-Jun-16 14:29N 55°42' E 012°36'0 0.0
2018-Jun-16 13:59N 55°42' E 012°36'0 0.0
2018-Jun-16 13:29N 55°42' E 012°36'0 0.0
2018-Jun-16 12:59N 55°42' E 012°36'0 0.0
2018-Jun-16 12:28N 55°42' E 012°36'0 0.0
2018-Jun-16 11:58N 55°42' E 012°36'0 0.0
2018-Jun-16 11:28N 55°42' E 012°36'0 0.0
2018-Jun-16 10:58N 55°42' E 012°36'0 0.0
2018-Jun-16 10:28N 55°42' E 012°36'1 2.5
2018-Jun-16 10:00N 55°43' E 012°37'3 5.3
2018-Jun-16 09:31N 55°41' E 012°41'510.5
2018-Jun-16 09:00N 55°36' E 012°42'5 9.2
2018-Jun-16 08:31N 55°31' E 012°42'714.2
2018-Jun-16 08:01N 55°24' E 012°42'612.7
2018-Jun-16 07:31N 55°18' E 012°42'814.6
2018-Jun-16 06:59N 55°16' E 012°55'714.8
2018-Jun-16 06:30N 55°15' E 013°07'2015.5
2018-Jun-16 05:12N 55°14' E 013°42'315.7
2018-Jun-16 04:59N 55°14' E 013°48'815.8
2018-Jun-16 04:30N 55°13' E 014°02'815.7
2018-Jun-16 04:00N 55°14' E 014°15'915.9
2018-Jun-16 03:27N 55°20' E 014°25'715.2
2018-Jun-16 03:00N 55°25' E 014°34'715.2
2018-Jun-16 02:30N 55°25' E 014°48'815.6
2018-Jun-16 02:00N 55°24' E 015°01'814.9
2018-Jun-16 01:30N 55°22' E 015°14'815.8
2018-Jun-16 01:00N 55°21' E 015°27'816.6
2018-Jun-16 00:30N 55°20' E 015°42'1116.1
2018-Jun-15 23:49N 55°17' E 016°01'516.1
2018-Jun-15 23:29N 55°16' E 016°10'6215.8
2018-Jun-15 19:34N 55°03' E 017°56'216.0
2018-Jun-15 19:25N 55°03' E 017°60'715.7
2018-Jun-15 19:00N 55°01' E 018°11'815.9
2018-Jun-15 18:29N 54°60' E 018°25'815.5
2018-Jun-15 18:00N 54°56' E 018°36'815.8
2018-Jun-15 17:31N 54°51' E 018°47'815.8
2018-Jun-15 17:01N 54°46' E 018°58'714.8
2018-Jun-15 16:31N 54°39' E 018°57'815.0
2018-Jun-15 16:00N 54°32' E 018°50'612.1
2018-Jun-15 15:30N 54°32' E 018°39'4 6.8
2018-Jun-15 14:59N 54°32' E 018°33'0 0.0
2018-Jun-15 14:29N 54°32' E 018°33'0 0.0
2018-Jun-15 13:59N 54°32' E 018°33'0 0.0
2018-Jun-15 13:29N 54°32' E 018°33'0 0.0
2018-Jun-15 12:59N 54°32' E 018°33'0 0.0
2018-Jun-15 12:28N 54°32' E 018°33'0 0.0
2018-Jun-15 11:58N 54°32' E 018°33'0 0.0
2018-Jun-15 11:28N 54°32' E 018°33'0 0.0
2018-Jun-15 10:58N 54°32' E 018°33'0 0.0
2018-Jun-15 10:27N 54°32' E 018°33'0 0.0
2018-Jun-15 10:00N 54°32' E 018°33'0 0.0
2018-Jun-15 09:30N 54°32' E 018°33'0 0.0
2018-Jun-15 09:00N 54°32' E 018°33'0 0.0
2018-Jun-15 08:30N 54°32' E 018°33'0 0.0
2018-Jun-15 07:59N 54°32' E 018°33'0 0.0
2018-Jun-15 07:29N 54°32' E 018°33'0 0.0
2018-Jun-15 06:59N 54°32' E 018°33'0 0.0
2018-Jun-15 06:29N 54°32' E 018°33'0 0.0
2018-Jun-15 05:59N 54°32' E 018°33'0 0.3
2018-Jun-15 05:30N 54°32' E 018°33'3 6.6
2018-Jun-15 05:00N 54°32' E 018°39'611.4
2018-Jun-15 04:31N 54°33' E 018°49'815.6
2018-Jun-15 04:01N 54°39' E 018°56'714.9
2018-Jun-15 03:30N 54°46' E 019°00'714.8
2018-Jun-15 03:01N 54°54' E 019°02'814.9
2018-Jun-15 02:30N 55°01' E 019°03'714.7
2018-Jun-15 02:00N 55°09' E 019°04'714.8
2018-Jun-15 01:29N 55°16' E 019°06'18617.2
2018-Jun-14 14:39N 58°21' E 019°43'415.5
2018-Jun-14 14:24N 58°25' E 019°44'615.6
2018-Jun-14 14:00N 58°31' E 019°45'815.5
2018-Jun-14 13:29N 58°39' E 019°47'815.7
2018-Jun-14 12:59N 58°47' E 019°48'815.9
2018-Jun-14 12:30N 58°55' E 019°50'815.8
2018-Jun-14 12:00N 59°02' E 019°51'815.5
2018-Jun-14 11:30N 59°10' E 019°53'815.4
2018-Jun-14 11:00N 59°18' E 019°55'815.6
2018-Jun-14 10:30N 59°26' E 019°55'815.3
2018-Jun-14 10:00N 59°33' E 019°58'714.4
2018-Jun-14 09:30N 59°40' E 019°52'815.0
2018-Jun-14 09:00N 59°45' E 019°42'1114.5
2018-Jun-14 08:16N 59°46' E 019°21'312.3
2018-Jun-14 08:00N 59°45' E 019°15'816.0
2018-Jun-14 07:30N 59°41' E 019°01'611.0
2018-Jun-14 06:59N 59°38' E 018°52'612.1
2018-Jun-14 06:30N 59°35' E 018°42'510.5
2018-Jun-14 06:00N 59°32' E 018°33'4 8.5
2018-Jun-14 05:30N 59°28' E 018°30'4 7.8
2018-Jun-14 05:00N 59°26' E 018°23'5 9.8
2018-Jun-14 04:30N 59°21' E 018°26'5 9.7
2018-Jun-14 04:00N 59°22' E 018°17'510.7
2018-Jun-14 03:30N 59°19' E 018°08'1 1.6
2018-Jun-14 03:00N 59°19' E 018°06'0 0.0
2018-Jun-14 02:30N 59°19' E 018°06'0 0.0
2018-Jun-14 01:59N 59°19' E 018°06'0 0.0
2018-Jun-14 01:29N 59°19' E 018°06'0 0.0
2018-Jun-14 00:59N 59°19' E 018°06'0 0.0
2018-Jun-14 00:29N 59°19' E 018°06'0 0.0
2018-Jun-13 23:59N 59°19' E 018°06'0 0.0
2018-Jun-13 23:28N 59°19' E 018°06'0 0.0
2018-Jun-13 22:58N 59°19' E 018°06'0 0.0
2018-Jun-13 22:28N 59°19' E 018°06'0 0.0
2018-Jun-13 21:58N 59°19' E 018°06'0 0.0
2018-Jun-13 21:24N 59°19' E 018°06'0 0.0
2018-Jun-13 21:00N 59°19' E 018°06'0 0.0
2018-Jun-13 20:30N 59°19' E 018°06'0 0.0
2018-Jun-13 20:00N 59°19' E 018°06'0 0.0
2018-Jun-13 19:30N 59°19' E 018°06'0 0.0
2018-Jun-13 18:59N 59°19' E 018°06'0 0.0
2018-Jun-13 18:26N 59°19' E 018°06'0 0.0
2018-Jun-13 17:59N 59°19' E 018°06'0 0.0
2018-Jun-13 17:29N 59°19' E 018°06'0 0.0
2018-Jun-13 16:56N 59°19' E 018°06'0 0.0
2018-Jun-13 16:30N 59°19' E 018°06'0 0.0
2018-Jun-13 15:58N 59°19' E 018°06'0 0.0
2018-Jun-13 15:28N 59°19' E 018°06'0 0.0
2018-Jun-13 14:58N 59°19' E 018°06'0 0.0
2018-Jun-13 14:28N 59°19' E 018°06'0 0.0
2018-Jun-13 14:00N 59°19' E 018°06'0 0.0
2018-Jun-13 13:30N 59°19' E 018°06'0 0.0
2018-Jun-13 12:57N 59°19' E 018°06'0 0.0
2018-Jun-13 12:30N 59°19' E 018°06'0 0.0
2018-Jun-13 11:59N 59°19' E 018°06'0 0.0
2018-Jun-13 11:29N 59°19' E 018°06'0 0.0
2018-Jun-13 10:59N 59°19' E 018°06'0 0.0
2018-Jun-13 10:29N 59°19' E 018°06'0 0.0
2018-Jun-13 09:59N 59°19' E 018°06'0 0.0
2018-Jun-13 09:28N 59°19' E 018°06'0 0.0
2018-Jun-13 08:58N 59°19' E 018°06'0 0.3
2018-Jun-13 08:30N 59°19' E 018°07'2 4.4
2018-Jun-13 08:00N 59°20' E 018°11'611.4
2018-Jun-13 07:30N 59°23' E 018°20'3 6.5
2018-Jun-13 07:00N 59°23' E 018°27'4 8.1
2018-Jun-13 06:30N 59°27' E 018°26'710.3
2018-Jun-13 05:49N 59°33' E 018°35'310.2
2018-Jun-13 05:30N 59°35' E 018°40'612.0
2018-Jun-13 05:00N 59°38' E 018°50'5 9.9
2018-Jun-13 04:30N 59°41' E 018°58'815.1
2018-Jun-13 04:00N 59°44' E 019°12'814.1
2018-Jun-13 03:27N 59°47' E 019°26'614.0
2018-Jun-13 03:00N 59°49' E 019°37'813.6
2018-Jun-13 02:25N 59°45' E 019°51'614.6
2018-Jun-13 02:01N 59°41' E 019°59'713.9
2018-Jun-13 01:30N 59°37' E 020°11'1014.8
2018-Jun-13 00:51N 59°37' E 020°30'714.8
2018-Jun-13 00:24N 59°35' E 020°43'614.4
2018-Jun-12 23:59N 59°34' E 020°54'714.7
2018-Jun-12 23:30N 59°33' E 021°08'714.8
2018-Jun-12 23:00N 59°31' E 021°22'714.8
2018-Jun-12 22:30N 59°30' E 021°36'714.6
2018-Jun-12 22:00N 59°28' E 021°50'814.7
2018-Jun-12 21:30N 59°28' E 022°05'714.5
2018-Jun-12 20:59N 59°28' E 022°20'714.6
2018-Jun-12 20:30N 59°31' E 022°32'714.6
2018-Jun-12 20:00N 59°33' E 022°46'714.7
2018-Jun-12 19:30N 59°36' E 022°60'714.7
2018-Jun-12 19:00N 59°37' E 023°14'814.6
2018-Jun-12 18:28N 59°39' E 023°29'714.5
2018-Jun-12 17:59N 59°41' E 023°42'814.8
2018-Jun-12 17:25N 59°43' E 023°58'614.7
2018-Jun-12 17:01N 59°45' E 024°10'714.8
2018-Jun-12 16:31N 59°47' E 024°24'714.5
2018-Jun-12 16:00N 59°49' E 024°37'714.6
2018-Jun-12 15:30N 59°56' E 024°45'612.9
2018-Jun-12 15:00N 59°60' E 024°54'611.4
2018-Jun-12 14:30N 60°06' E 024°54'3 6.1
2018-Jun-12 13:58N 60°09' E 024°55'0 0.0
2018-Jun-12 13:27N 60°09' E 024°55'0 0.0
2018-Jun-12 13:00N 60°09' E 024°55'0 0.0
2018-Jun-12 12:30N 60°09' E 024°55'0 0.0
2018-Jun-12 12:00N 60°09' E 024°55'0 0.0
2018-Jun-12 11:30N 60°09' E 024°55'0 0.0
2018-Jun-12 10:59N 60°09' E 024°55'0 0.0
2018-Jun-12 10:29N 60°09' E 024°55'0 0.0
2018-Jun-12 09:59N 60°09' E 024°55'0 0.0
2018-Jun-12 09:29N 60°09' E 024°55'0 0.0
2018-Jun-12 08:59N 60°09' E 024°55'0 0.0
2018-Jun-12 08:28N 60°09' E 024°55'0 0.0
2018-Jun-12 07:58N 60°09' E 024°55'0 0.0
2018-Jun-12 07:28N 60°09' E 024°55'0 0.0
2018-Jun-12 06:56N 60°09' E 024°55'0 0.0
2018-Jun-12 06:30N 60°09' E 024°55'0 0.0
2018-Jun-12 05:58N 60°09' E 024°55'0 0.8
2018-Jun-12 05:30N 60°09' E 024°55'3 5.5
2018-Jun-12 05:00N 60°06' E 024°54'612.4
2018-Jun-12 04:31N 60°00' E 024°60'714.1
2018-Jun-12 04:00N 59°59' E 025°14'815.6
2018-Jun-12 03:30N 59°57' E 025°29'3315.7
2018-Jun-12 01:24N 60°01' E 026°34'615.3
2018-Jun-12 01:00N 60°01' E 026°46'915.0
2018-Jun-12 00:24N 60°00' E 027°05'615.3
2018-Jun-12 00:00N 60°03' E 027°15'815.4
2018-Jun-11 23:30N 60°07' E 027°28'815.5
2018-Jun-11 23:00N 60°11' E 027°42'714.7
2018-Jun-11 22:30N 60°11' E 027°56'815.3
2018-Jun-11 22:01N 60°09' E 028°11'815.2
2018-Jun-11 21:30N 60°05' E 028°24'715.0
2018-Jun-11 21:00N 60°03' E 028°39'816.0
2018-Jun-11 20:30N 60°03' E 028°55'814.8
2018-Jun-11 19:56N 60°02' E 029°12'1812.6
2018-Jun-11 18:32N 59°59' E 029°46'129.8
2018-Jun-11 18:30N 59°58' E 029°47'610.8
2018-Jun-11 17:59N 59°56' E 029°58'510.4
2018-Jun-11 17:30N 59°57' E 030°08'2 0.9
2018-Jun-11 15:14N 59°57' E 030°12'0 0.0
2018-Jun-11 12:22N 59°57' E 030°12'0 0.0
2018-Jun-11 10:25N 59°57' E 030°12'0 0.0
2018-Jun-11 07:18N 59°57' E 030°12'0 0.0
2018-Jun-11 05:54N 59°57' E 030°12'0 0.0
2018-Jun-11 05:30N 59°57' E 030°12'0 0.0
2018-Jun-11 04:38N 59°57' E 030°12'0 0.0
2018-Jun-11 04:29N 59°57' E 030°12'0 0.0
2018-Jun-11 03:44N 59°57' E 030°12'0 0.0
2018-Jun-11 03:16N 59°57' E 030°12'0 0.0
2018-Jun-11 02:49N 59°57' E 030°12'0 0.0
2018-Jun-11 02:28N 59°57' E 030°12'0 0.0
2018-Jun-10 22:48N 59°57' E 030°12'0 0.0
2018-Jun-10 22:23N 59°57' E 030°12'0 0.0
2018-Jun-10 21:56N 59°57' E 030°12'0 0.0
2018-Jun-10 20:51N 59°57' E 030°12'0 0.0
2018-Jun-10 19:08N 59°57' E 030°12'0 0.0
2018-Jun-10 18:48N 59°57' E 030°12'0 0.0
2018-Jun-10 18:28N 59°57' E 030°12'0 0.0
2018-Jun-10 17:06N 59°57' E 030°12'0 0.0
2018-Jun-10 16:54N 59°57' E 030°12'0 0.0
2018-Jun-10 16:22N 59°57' E 030°12'0 0.0
2018-Jun-10 14:34N 59°57' E 030°12'0 0.0
2018-Jun-10 14:24N 59°57' E 030°12'0 0.0
2018-Jun-10 09:53N 59°57' E 030°12'0 0.0
2018-Jun-10 09:30N 59°57' E 030°12'0 0.0
2018-Jun-10 06:55N 59°57' E 030°12'0 0.0
2018-Jun-10 06:24N 59°57' E 030°12'0 0.0
2018-Jun-10 05:48N 59°57' E 030°12'0 0.0
2018-Jun-10 05:30N 59°57' E 030°12'0 0.0
2018-Jun-10 04:42N 59°57' E 030°12'0 0.0
2018-Jun-10 04:24N 59°57' E 030°12'0 0.0
2018-Jun-10 03:51N 59°57' E 030°12'0 0.7
2018-Jun-10 03:28N 59°57' E 030°11'4 7.7
2018-Jun-10 03:01N 59°56' E 030°04'5 9.3
2018-Jun-10 02:29N 59°56' E 029°54'510.2
2018-Jun-10 02:00N 59°59' E 029°46'510.1
2018-Jun-10 01:30N 60°00' E 029°36'610.2
2018-Jun-10 00:53N 60°02' E 029°24'820.1
2018-Jun-10 00:29N 60°02' E 029°08'5 9.7
2018-Jun-10 00:00N 60°02' E 028°58'814.9
2018-Jun-09 23:29N 60°02' E 028°43'715.6
2018-Jun-09 23:00N 60°03' E 028°28'816.2
2018-Jun-09 22:30N 60°07' E 028°14'815.8
2018-Jun-09 22:00N 60°09' E 027°59'815.2
2018-Jun-09 21:30N 60°10' E 027°44'815.7
2018-Jun-09 21:00N 60°06' E 027°30'815.4
2018-Jun-09 20:30N 60°02' E 027°17'815.3
2018-Jun-09 20:00N 59°58' E 027°04'815.3
2018-Jun-09 19:30N 59°59' E 026°49'815.0
2018-Jun-09 19:00N 59°59' E 026°34'815.4
2018-Jun-09 18:31N 59°57' E 026°19'815.4
2018-Jun-09 18:00N 59°55' E 026°04'815.6
2018-Jun-09 17:30N 59°52' E 025°49'815.5
2018-Jun-09 17:00N 59°50' E 025°35'815.5
2018-Jun-09 16:30N 59°47' E 025°20'815.4
2018-Jun-09 16:00N 59°45' E 025°06'1514.8
2018-Jun-09 15:00N 59°37' E 024°41'713.5
2018-Jun-09 14:30N 59°30' E 024°45'3 6.8
2018-Jun-09 14:00N 59°27' E 024°46'0 0.0
2018-Jun-09 13:30N 59°27' E 024°46'0 0.0
2018-Jun-09 13:00N 59°27' E 024°46'0 0.0
2018-Jun-09 12:30N 59°27' E 024°46'0 0.0
2018-Jun-09 11:59N 59°27' E 024°46'0 0.0
2018-Jun-09 11:30N 59°27' E 024°46'0 0.0
2018-Jun-09 11:00N 59°27' E 024°46'0 0.0
2018-Jun-09 10:29N 59°27' E 024°46'0 0.0
2018-Jun-09 09:58N 59°27' E 024°46'0 0.0
2018-Jun-09 09:25N 59°27' E 024°46'0 0.0
2018-Jun-09 08:58N 59°27' E 024°46'0 0.0
2018-Jun-09 08:28N 59°27' E 024°46'0 0.0
2018-Jun-09 07:58N 59°27' E 024°46'0 0.0
2018-Jun-09 07:30N 59°27' E 024°46'0 0.0
2018-Jun-09 07:00N 59°27' E 024°46'0 0.0
2018-Jun-09 06:30N 59°27' E 024°46'0 0.0
2018-Jun-09 06:00N 59°27' E 024°46'0 0.1
2018-Jun-09 05:30N 59°27' E 024°46'2 4.6
2018-Jun-09 05:00N 59°29' E 024°45'612.0
2018-Jun-09 04:31N 59°30' E 024°33'713.7
2018-Jun-09 04:00N 59°30' E 024°19'714.8
2018-Jun-09 03:30N 59°30' E 024°05'1215.4
2018-Jun-09 02:43N 59°30' E 023°41'315.2
2018-Jun-09 02:30N 59°30' E 023°34'815.3
2018-Jun-09 02:00N 59°30' E 023°19'815.4
2018-Jun-09 01:30N 59°29' E 023°04'815.5
2018-Jun-09 01:00N 59°27' E 022°49'1215.3
2018-Jun-09 00:13N 59°22' E 022°28'915.4
2018-Jun-08 23:38N 59°16' E 022°14'215.4
2018-Jun-08 23:30N 59°15' E 022°11'815.4
2018-Jun-08 23:00N 59°11' E 021°59'815.6
2018-Jun-08 22:30N 59°06' E 021°46'1015.9
2018-Jun-08 21:53N 58°58' E 021°35'26114.2
2018-Jun-08 03:34N 55°49' E 016°00'616.1
2018-Jun-08 03:12N 55°47' E 015°51'316.5
2018-Jun-08 03:00N 55°45' E 015°46'  

Dump ship's entire track history